sensor_id;sensor_type;location;lat;lon;timestamp;pressure;altitude;pressure_sealevel;temperature;humidity
76586;BME280;65251;51.022;13.736;2023-04-27T00:00:30;99606.75;;;5.11;59.92
76586;BME280;65251;51.022;13.736;2023-04-27T00:01:05;99607.75;;;5.10;60.29
76586;BME280;65251;51.022;13.736;2023-04-27T00:01:36;99608.25;;;5.14;59.62
76586;BME280;65251;51.022;13.736;2023-04-27T00:02:08;99604.78;;;5.13;59.92
76586;BME280;65251;51.022;13.736;2023-04-27T00:02:38;99602.47;;;5.10;60.07
76586;BME280;65251;51.022;13.736;2023-04-27T00:03:09;99603.44;;;5.09;60.30
76586;BME280;65251;51.022;13.736;2023-04-27T00:03:42;99608.88;;;5.08;61.11
76586;BME280;65251;51.022;13.736;2023-04-27T00:04:15;99604.59;;;5.07;60.50
76586;BME280;65251;51.022;13.736;2023-04-27T00:04:45;99598.66;;;5.05;60.06
76586;BME280;65251;51.022;13.736;2023-04-27T00:05:18;99603.94;;;5.05;60.06
76586;BME280;65251;51.022;13.736;2023-04-27T00:05:49;99597.16;;;5.02;59.87
76586;BME280;65251;51.022;13.736;2023-04-27T00:06:20;99609.53;;;5.02;60.25
76586;BME280;65251;51.022;13.736;2023-04-27T00:06:52;99603.75;;;4.98;60.11
76586;BME280;65251;51.022;13.736;2023-04-27T00:07:22;99603.56;;;5.00;60.25
76586;BME280;65251;51.022;13.736;2023-04-27T00:07:53;99594.34;;;4.96;60.93
76586;BME280;65251;51.022;13.736;2023-04-27T00:08:25;99601.28;;;4.97;60.39
76586;BME280;65251;51.022;13.736;2023-04-27T00:08:56;99596.31;;;4.94;60.51
76586;BME280;65251;51.022;13.736;2023-04-27T00:09:26;99595.66;;;4.92;60.40
76586;BME280;65251;51.022;13.736;2023-04-27T00:09:58;99597.78;;;4.88;60.25
76586;BME280;65251;51.022;13.736;2023-04-27T00:10:29;99597.94;;;4.87;60.56
76586;BME280;65251;51.022;13.736;2023-04-27T00:11:00;99595.13;;;4.88;60.85
76586;BME280;65251;51.022;13.736;2023-04-27T00:11:31;99598.44;;;4.90;60.55
76586;BME280;65251;51.022;13.736;2023-04-27T00:12:02;99596.63;;;4.91;60.46
76586;BME280;65251;51.022;13.736;2023-04-27T00:12:33;99597.63;;;4.90;60.49
76586;BME280;65251;51.022;13.736;2023-04-27T00:13:05;99595.28;;;4.87;60.12
76586;BME280;65251;51.022;13.736;2023-04-27T00:13:36;99595.28;;;4.87;60.17
76586;BME280;65251;51.022;13.736;2023-04-27T00:14:06;99588.53;;;4.84;60.10
76586;BME280;65251;51.022;13.736;2023-04-27T00:14:39;99589.50;;;4.83;60.50
76586;BME280;65251;51.022;13.736;2023-04-27T00:15:10;99593.63;;;4.85;60.37
76586;BME280;65251;51.022;13.736;2023-04-27T00:15:41;99591.81;;;4.86;60.04
76586;BME280;65251;51.022;13.736;2023-04-27T00:16:14;99590.03;;;4.87;60.58
76586;BME280;65251;51.022;13.736;2023-04-27T00:16:45;99591.31;;;4.82;60.44
76586;BME280;65251;51.022;13.736;2023-04-27T00:17:16;99586.53;;;4.78;60.89
76586;BME280;65251;51.022;13.736;2023-04-27T00:17:47;99591.00;;;4.77;60.74
76586;BME280;65251;51.022;13.736;2023-04-27T00:18:18;99590.31;;;4.75;60.46
76586;BME280;65251;51.022;13.736;2023-04-27T00:18:49;99586.38;;;4.79;60.42
76586;BME280;65251;51.022;13.736;2023-04-27T00:19:20;99590.16;;;4.77;61.63
76586;BME280;65251;51.022;13.736;2023-04-27T00:19:52;99597.56;;;4.73;62.08
76586;BME280;65251;51.022;13.736;2023-04-27T00:20:23;99588.63;;;4.66;62.47
76586;BME280;65251;51.022;13.736;2023-04-27T00:20:54;99590.59;;;4.64;62.80
76586;BME280;65251;51.022;13.736;2023-04-27T00:21:26;99581.84;;;4.64;62.11
76586;BME280;65251;51.022;13.736;2023-04-27T00:21:57;99583.81;;;4.62;62.32
76586;BME280;65251;51.022;13.736;2023-04-27T00:22:29;99592.91;;;4.59;62.73
76586;BME280;65251;51.022;13.736;2023-04-27T00:23:00;99590.56;;;4.56;62.81
76586;BME280;65251;51.022;13.736;2023-04-27T00:23:32;99590.06;;;4.53;62.95
76586;BME280;65251;51.022;13.736;2023-04-27T00:24:03;99591.88;;;4.52;62.64
76586;BME280;65251;51.022;13.736;2023-04-27T00:24:33;99589.38;;;4.50;62.79
76586;BME280;65251;51.022;13.736;2023-04-27T00:25:06;99587.56;;;4.51;62.57
76586;BME280;65251;51.022;13.736;2023-04-27T00:25:37;99589.84;;;4.46;62.50
76586;BME280;65251;51.022;13.736;2023-04-27T00:26:08;99589.69;;;4.47;62.35
76586;BME280;65251;51.022;13.736;2023-04-27T00:26:39;99579.97;;;4.48;62.58
76586;BME280;65251;51.022;13.736;2023-04-27T00:27:10;99590.53;;;4.48;62.49
76586;BME280;65251;51.022;13.736;2023-04-27T00:27:42;99591.50;;;4.47;62.56
76586;BME280;65251;51.022;13.736;2023-04-27T00:28:14;99591.19;;;4.50;62.45
76586;BME280;65251;51.022;13.736;2023-04-27T00:28:45;99589.22;;;4.52;62.17
76586;BME280;65251;51.022;13.736;2023-04-27T00:29:16;99586.59;;;4.52;62.10
76586;BME280;65251;51.022;13.736;2023-04-27T00:29:48;99582.47;;;4.49;62.11
76586;BME280;65251;51.022;13.736;2023-04-27T00:30:20;99592.53;;;4.54;61.93
76586;BME280;65251;51.022;13.736;2023-04-27T00:30:51;99595.69;;;4.58;61.87
76586;BME280;65251;51.022;13.736;2023-04-27T00:31:24;99593.06;;;4.58;61.92
76586;BME280;65251;51.022;13.736;2023-04-27T00:31:55;99588.28;;;4.61;61.75
76586;BME280;65251;51.022;13.736;2023-04-27T00:32:26;99591.25;;;4.58;61.73
76586;BME280;65251;51.022;13.736;2023-04-27T00:32:57;99594.88;;;4.57;61.70
76586;BME280;65251;51.022;13.736;2023-04-27T00:33:28;99596.84;;;4.55;62.07
76586;BME280;65251;51.022;13.736;2023-04-27T00:33:59;99590.56;;;4.56;62.16
76586;BME280;65251;51.022;13.736;2023-04-27T00:34:30;99595.34;;;4.53;62.24
76586;BME280;65251;51.022;13.736;2023-04-27T00:35:01;99597.63;;;4.47;63.13
76586;BME280;65251;51.022;13.736;2023-04-27T00:35:33;99598.59;;;4.46;63.26
76586;BME280;65251;51.022;13.736;2023-04-27T00:36:04;99602.38;;;4.44;63.12
76586;BME280;65251;51.022;13.736;2023-04-27T00:36:35;99602.38;;;4.44;62.82
76586;BME280;65251;51.022;13.736;2023-04-27T00:37:06;99597.94;;;4.44;62.72
76586;BME280;65251;51.022;13.736;2023-04-27T00:37:37;99597.78;;;4.46;63.11
76586;BME280;65251;51.022;13.736;2023-04-27T00:38:08;99603.88;;;4.46;63.02
76586;BME280;65251;51.022;13.736;2023-04-27T00:38:40;99598.75;;;4.45;63.11
76586;BME280;65251;51.022;13.736;2023-04-27T00:39:11;99595.44;;;4.43;63.01
76586;BME280;65251;51.022;13.736;2023-04-27T00:39:41;99596.28;;;4.43;62.96
76586;BME280;65251;51.022;13.736;2023-04-27T00:40:13;99597.25;;;4.42;63.80
76586;BME280;65251;51.022;13.736;2023-04-27T00:40:44;99604.03;;;4.45;63.16
76586;BME280;65251;51.022;13.736;2023-04-27T00:41:14;99596.78;;;4.47;63.02
76586;BME280;65251;51.022;13.736;2023-04-27T00:41:46;99601.91;;;4.48;62.98
76586;BME280;65251;51.022;13.736;2023-04-27T00:42:17;99603.03;;;4.46;62.66
76586;BME280;65251;51.022;13.736;2023-04-27T00:42:49;99607.50;;;4.45;63.13
76586;BME280;65251;51.022;13.736;2023-04-27T00:43:21;99598.91;;;4.43;63.25
76586;BME280;65251;51.022;13.736;2023-04-27T00:43:51;99606.81;;;4.43;63.09
76586;BME280;65251;51.022;13.736;2023-04-27T00:44:23;99601.53;;;4.43;63.41
76586;BME280;65251;51.022;13.736;2023-04-27T00:44:57;99599.75;;;4.44;63.35
76586;BME280;65251;51.022;13.736;2023-04-27T00:45:28;99591.97;;;4.42;63.88
76586;BME280;65251;51.022;13.736;2023-04-27T00:45:59;99599.22;;;4.40;63.83
76586;BME280;65251;51.022;13.736;2023-04-27T00:46:31;99597.75;;;4.38;63.86
76586;BME280;65251;51.022;13.736;2023-04-27T00:47:03;99594.44;;;4.36;64.05
76586;BME280;65251;51.022;13.736;2023-04-27T00:47:33;99603.19;;;4.36;64.13
76586;BME280;65251;51.022;13.736;2023-04-27T00:48:06;99600.69;;;4.35;64.27
76586;BME280;65251;51.022;13.736;2023-04-27T00:48:37;99599.56;;;4.37;64.06
76586;BME280;65251;51.022;13.736;2023-04-27T00:49:08;99598.88;;;4.35;64.46
76586;BME280;65251;51.022;13.736;2023-04-27T00:49:40;99604.84;;;4.37;64.03
76586;BME280;65251;51.022;13.736;2023-04-27T00:50:11;99602.88;;;4.39;63.91
76586;BME280;65251;51.022;13.736;2023-04-27T00:50:42;99597.59;;;4.39;63.78
76586;BME280;65251;51.022;13.736;2023-04-27T00:51:14;99603.66;;;4.40;63.98
76586;BME280;65251;51.022;13.736;2023-04-27T00:51:46;99606.66;;;4.37;64.13
76586;BME280;65251;51.022;13.736;2023-04-27T00:52:17;99605.16;;;4.34;64.06
76586;BME280;65251;51.022;13.736;2023-04-27T00:52:48;99607.63;;;4.36;63.99
76586;BME280;65251;51.022;13.736;2023-04-27T00:53:20;99602.66;;;4.33;63.97
76586;BME280;65251;51.022;13.736;2023-04-27T00:53:51;99605.59;;;4.30;64.31
76586;BME280;65251;51.022;13.736;2023-04-27T00:54:23;99615.47;;;4.28;64.14
76586;BME280;65251;51.022;13.736;2023-04-27T00:54:56;99610.22;;;4.28;64.28
76586;BME280;65251;51.022;13.736;2023-04-27T00:55:28;99607.72;;;4.26;64.59
76586;BME280;65251;51.022;13.736;2023-04-27T00:55:58;99611.34;;;4.25;64.58
76586;BME280;65251;51.022;13.736;2023-04-27T00:56:29;99608.69;;;4.25;64.41
76586;BME280;65251;51.022;13.736;2023-04-27T00:57:02;99609.69;;;4.24;64.60
76586;BME280;65251;51.022;13.736;2023-04-27T00:57:33;99610.22;;;4.28;64.57
76586;BME280;65251;51.022;13.736;2023-04-27T00:58:04;99607.72;;;4.26;64.61
76586;BME280;65251;51.022;13.736;2023-04-27T00:58:35;99610.34;;;4.26;64.65
76586;BME280;65251;51.022;13.736;2023-04-27T00:59:06;99611.50;;;4.24;64.65
76586;BME280;65251;51.022;13.736;2023-04-27T00:59:37;99608.56;;;4.27;65.07
76586;BME280;65251;51.022;13.736;2023-04-27T01:00:12;99602.59;;;4.25;65.19
76586;BME280;65251;51.022;13.736;2023-04-27T01:00:43;99609.69;;;4.24;65.38
76586;BME280;65251;51.022;13.736;2023-04-27T01:01:13;99616.91;;;4.22;65.43
76586;BME280;65251;51.022;13.736;2023-04-27T01:01:46;99601.78;;;4.24;64.97
76586;BME280;65251;51.022;13.736;2023-04-27T01:02:17;99614.97;;;4.24;65.37
76586;BME280;65251;51.022;13.736;2023-04-27T01:02:48;99611.50;;;4.24;64.92
76586;BME280;65251;51.022;13.736;2023-04-27T01:03:21;99610.81;;;4.22;65.47
76586;BME280;65251;51.022;13.736;2023-04-27T01:03:52;99616.44;;;4.19;64.93
76586;BME280;65251;51.022;13.736;2023-04-27T01:04:23;99619.06;;;4.19;65.52
76586;BME280;65251;51.022;13.736;2023-04-27T01:04:55;99616.44;;;4.19;65.63
76586;BME280;65251;51.022;13.736;2023-04-27T01:05:27;99613.13;;;4.17;65.58
76586;BME280;65251;51.022;13.736;2023-04-27T01:05:58;99613.44;;;4.13;65.75
76586;BME280;65251;51.022;13.736;2023-04-27T01:06:30;99617.56;;;4.16;65.89
76586;BME280;65251;51.022;13.736;2023-04-27T01:07:01;99606.34;;;4.14;65.72
76586;BME280;65251;51.022;13.736;2023-04-27T01:07:32;99614.94;;;4.16;65.53
76586;BME280;65251;51.022;13.736;2023-04-27T01:08:03;99613.13;;;4.17;65.53
76586;BME280;65251;51.022;13.736;2023-04-27T01:08:35;99618.38;;;4.17;66.02
76586;BME280;65251;51.022;13.736;2023-04-27T01:09:06;99615.09;;;4.14;65.69
76586;BME280;65251;51.022;13.736;2023-04-27T01:09:37;99618.03;;;4.11;65.59
76586;BME280;65251;51.022;13.736;2023-04-27T01:10:09;99613.06;;;4.08;66.08
76586;BME280;65251;51.022;13.736;2023-04-27T01:10:40;99607.78;;;4.08;66.25
76586;BME280;65251;51.022;13.736;2023-04-27T01:11:11;99607.94;;;4.07;65.86
76586;BME280;65251;51.022;13.736;2023-04-27T01:11:42;99607.09;;;4.06;65.76
76586;BME280;65251;51.022;13.736;2023-04-27T01:12:13;99615.69;;;4.08;65.69
76586;BME280;65251;51.022;13.736;2023-04-27T01:12:44;99611.25;;;4.09;66.07
76586;BME280;65251;51.022;13.736;2023-04-27T01:13:16;99604.47;;;4.06;65.65
76586;BME280;65251;51.022;13.736;2023-04-27T01:13:46;99614.03;;;4.07;66.11
76586;BME280;65251;51.022;13.736;2023-04-27T01:14:17;99610.41;;;4.08;66.00
76586;BME280;65251;51.022;13.736;2023-04-27T01:14:49;99608.59;;;4.09;65.54
76586;BME280;65251;51.022;13.736;2023-04-27T01:15:21;99606.94;;;4.08;65.49
76586;BME280;65251;51.022;13.736;2023-04-27T01:15:51;99610.25;;;4.10;65.65
76586;BME280;65251;51.022;13.736;2023-04-27T01:16:23;99605.97;;;4.09;65.28
76586;BME280;65251;51.022;13.736;2023-04-27T01:16:54;99610.56;;;4.07;65.43
76586;BME280;65251;51.022;13.736;2023-04-27T01:17:25;99615.00;;;4.06;65.55
76586;BME280;65251;51.022;13.736;2023-04-27T01:17:59;99617.28;;;4.01;66.13
76586;BME280;65251;51.022;13.736;2023-04-27T01:18:31;99613.81;;;4.01;65.83
76586;BME280;65251;51.022;13.736;2023-04-27T01:19:03;99609.06;;;4.04;65.53
76586;BME280;65251;51.022;13.736;2023-04-27T01:19:34;99608.25;;;4.04;65.59
76586;BME280;65251;51.022;13.736;2023-04-27T01:20:07;99616.16;;;4.04;66.35
76586;BME280;65251;51.022;13.736;2023-04-27T01:20:40;99613.50;;;4.04;66.06
76586;BME280;65251;51.022;13.736;2023-04-27T01:21:11;99611.69;;;4.04;66.05
76586;BME280;65251;51.022;13.736;2023-04-27T01:21:43;99616.00;;;4.05;65.71
76586;BME280;65251;51.022;13.736;2023-04-27T01:22:14;99612.84;;;4.02;65.74
76586;BME280;65251;51.022;13.736;2023-04-27T01:22:45;99618.09;;;4.02;66.20
76586;BME280;65251;51.022;13.736;2023-04-27T01:23:17;99611.34;;;3.99;66.51
76586;BME280;65251;51.022;13.736;2023-04-27T01:23:49;99610.53;;;3.99;66.48
76586;BME280;65251;51.022;13.736;2023-04-27T01:24:19;99614.97;;;3.98;65.99
76586;BME280;65251;51.022;13.736;2023-04-27T01:24:50;99615.81;;;3.99;65.92
76586;BME280;65251;51.022;13.736;2023-04-27T01:25:21;99615.13;;;3.97;65.33
76586;BME280;65251;51.022;13.736;2023-04-27T01:25:53;99619.56;;;3.96;65.65
76586;BME280;65251;51.022;13.736;2023-04-27T01:26:23;99613.78;;;3.93;65.54
76586;BME280;65251;51.022;13.736;2023-04-27T01:26:54;99617.53;;;3.90;66.11
76586;BME280;65251;51.022;13.736;2023-04-27T01:27:26;99616.72;;;3.90;66.15
76586;BME280;65251;51.022;13.736;2023-04-27T01:27:56;99615.88;;;3.89;66.27
76586;BME280;65251;51.022;13.736;2023-04-27T01:28:27;99620.03;;;3.92;66.28
76586;BME280;65251;51.022;13.736;2023-04-27T01:28:59;99618.38;;;3.91;65.97
76586;BME280;65251;51.022;13.736;2023-04-27T01:29:30;99615.72;;;3.91;66.17
76586;BME280;65251;51.022;13.736;2023-04-27T01:30:00;99622.50;;;3.93;65.84
76586;BME280;65251;51.022;13.736;2023-04-27T01:30:32;99617.38;;;3.92;65.82
76586;BME280;65251;51.022;13.736;2023-04-27T01:31:03;99616.72;;;3.90;66.00
76586;BME280;65251;51.022;13.736;2023-04-27T01:31:34;99621.47;;;3.86;66.71
76586;BME280;65251;51.022;13.736;2023-04-27T01:32:06;99617.31;;;3.84;66.22
76586;BME280;65251;51.022;13.736;2023-04-27T01:32:36;99624.25;;;3.85;65.57
76586;BME280;65251;51.022;13.736;2023-04-27T01:33:07;99613.69;;;3.85;65.55
76586;BME280;65251;51.022;13.736;2023-04-27T01:33:39;99625.06;;;3.85;65.70
76586;BME280;65251;51.022;13.736;2023-04-27T01:34:11;99618.97;;;3.85;66.09
76586;BME280;65251;51.022;13.736;2023-04-27T01:34:41;99623.41;;;3.84;65.75
76586;BME280;65251;51.022;13.736;2023-04-27T01:35:12;99616.50;;;3.83;66.02
76586;BME280;65251;51.022;13.736;2023-04-27T01:35:44;99619.94;;;3.84;66.10
76586;BME280;65251;51.022;13.736;2023-04-27T01:36:15;99622.75;;;3.82;66.07
76586;BME280;65251;51.022;13.736;2023-04-27T01:36:46;99621.09;;;3.81;66.39
76586;BME280;65251;51.022;13.736;2023-04-27T01:37:18;99617.81;;;3.79;66.01
76586;BME280;65251;51.022;13.736;2023-04-27T01:37:49;99623.72;;;3.81;65.81
76586;BME280;65251;51.022;13.736;2023-04-27T01:38:22;99619.44;;;3.80;65.89
76586;BME280;65251;51.022;13.736;2023-04-27T01:38:54;99614.97;;;3.80;65.34
76586;BME280;65251;51.022;13.736;2023-04-27T01:39:25;99613.81;;;3.75;65.54
76586;BME280;65251;51.022;13.736;2023-04-27T01:39:56;99626.00;;;3.76;66.68
76586;BME280;65251;51.022;13.736;2023-04-27T01:40:27;99614.50;;;3.77;66.40
76586;BME280;65251;51.022;13.736;2023-04-27T01:40:59;99618.63;;;3.79;65.66
76586;BME280;65251;51.022;13.736;2023-04-27T01:41:31;99619.09;;;3.75;65.91
76586;BME280;65251;51.022;13.736;2023-04-27T01:42:03;99620.34;;;3.71;66.78
76586;BME280;65251;51.022;13.736;2023-04-27T01:42:34;99601.16;;;3.61;66.62
76586;BME280;65251;51.022;13.736;2023-04-27T01:43:04;99616.66;;;3.64;67.00
76586;BME280;65251;51.022;13.736;2023-04-27T01:43:35;99622.75;;;3.64;67.07
76586;BME280;65251;51.022;13.736;2023-04-27T01:44:07;99622.09;;;3.62;66.63
76586;BME280;65251;51.022;13.736;2023-04-27T01:44:38;99620.44;;;3.61;66.90
76586;BME280;65251;51.022;13.736;2023-04-27T01:45:10;99618.78;;;3.60;66.54
76586;BME280;65251;51.022;13.736;2023-04-27T01:45:42;99617.63;;;3.63;66.93
76586;BME280;65251;51.022;13.736;2023-04-27T01:46:13;99618.47;;;3.63;66.83
76586;BME280;65251;51.022;13.736;2023-04-27T01:46:44;99617.94;;;3.60;66.80
76586;BME280;65251;51.022;13.736;2023-04-27T01:47:15;99616.13;;;3.60;66.65
76586;BME280;65251;51.022;13.736;2023-04-27T01:47:46;99623.59;;;3.65;66.88
76586;BME280;65251;51.022;13.736;2023-04-27T01:48:19;99627.22;;;3.64;66.94
76586;BME280;65251;51.022;13.736;2023-04-27T01:48:50;99618.78;;;3.60;66.78
76586;BME280;65251;51.022;13.736;2023-04-27T01:49:22;99624.56;;;3.64;66.50
76586;BME280;65251;51.022;13.736;2023-04-27T01:49:53;99627.88;;;3.66;66.62
76586;BME280;65251;51.022;13.736;2023-04-27T01:50:23;99624.41;;;3.65;66.34
76586;BME280;65251;51.022;13.736;2023-04-27T01:50:55;99620.13;;;3.64;65.58
76586;BME280;65251;51.022;13.736;2023-04-27T01:51:26;99628.88;;;3.65;66.08
76586;BME280;65251;51.022;13.736;2023-04-27T01:51:57;99633.97;;;3.66;65.63
76586;BME280;65251;51.022;13.736;2023-04-27T01:52:28;99632.03;;;3.68;65.62
76586;BME280;65251;51.022;13.736;2023-04-27T01:52:59;99624.13;;;3.68;65.99
76586;BME280;65251;51.022;13.736;2023-04-27T01:53:31;99623.13;;;3.69;65.54
76586;BME280;65251;51.022;13.736;2023-04-27T01:54:03;99628.25;;;3.71;65.66
76586;BME280;65251;51.022;13.736;2023-04-27T01:54:34;99628.13;;;3.72;65.32
76586;BME280;65251;51.022;13.736;2023-04-27T01:55:06;99636.03;;;3.72;65.57
76586;BME280;65251;51.022;13.736;2023-04-27T01:55:37;99621.25;;;3.62;65.40
76586;BME280;65251;51.022;13.736;2023-04-27T01:56:08;99632.03;;;3.68;65.29
76586;BME280;65251;51.022;13.736;2023-04-27T01:56:40;99637.28;;;3.68;65.50
76586;BME280;65251;51.022;13.736;2023-04-27T01:57:11;99626.06;;;3.66;65.82
76586;BME280;65251;51.022;13.736;2023-04-27T01:57:43;99628.88;;;3.65;65.38
76586;BME280;65251;51.022;13.736;2023-04-27T01:58:15;99628.72;;;3.66;65.72
76586;BME280;65251;51.022;13.736;2023-04-27T01:58:46;99627.06;;;3.65;65.56
76586;BME280;65251;51.022;13.736;2023-04-27T01:59:16;99627.22;;;3.64;65.88
76586;BME280;65251;51.022;13.736;2023-04-27T01:59:48;99626.66;;;3.60;65.46
76586;BME280;65251;51.022;13.736;2023-04-27T02:00:19;99627.34;;;3.62;65.76
76586;BME280;65251;51.022;13.736;2023-04-27T02:00:50;99631.94;;;3.60;66.40
76586;BME280;65251;51.022;13.736;2023-04-27T02:01:21;99621.88;;;3.56;66.63
76586;BME280;65251;51.022;13.736;2023-04-27T02:01:52;99627.00;;;3.57;66.69
76586;BME280;65251;51.022;13.736;2023-04-27T02:02:23;99634.06;;;3.57;67.21
76586;BME280;65251;51.022;13.736;2023-04-27T02:02:55;99631.59;;;3.55;66.90
76586;BME280;65251;51.022;13.736;2023-04-27T02:03:26;99633.53;;;3.53;67.90
76586;BME280;65251;51.022;13.736;2023-04-27T02:03:57;99634.66;;;3.51;68.21
76586;BME280;65251;51.022;13.736;2023-04-27T02:04:29;99633.16;;;3.48;68.42
76586;BME280;65251;51.022;13.736;2023-04-27T02:05:00;99634.13;;;3.47;68.02
76586;BME280;65251;51.022;13.736;2023-04-27T02:05:30;99633.47;;;3.45;68.50
76586;BME280;65251;51.022;13.736;2023-04-27T02:06:02;99637.91;;;3.44;68.55
76586;BME280;65251;51.022;13.736;2023-04-27T02:06:33;99638.03;;;3.43;69.25
76586;BME280;65251;51.022;13.736;2023-04-27T02:07:04;99636.53;;;3.40;69.50
76586;BME280;65251;51.022;13.736;2023-04-27T02:07:35;99640.97;;;3.40;69.14
76586;BME280;65251;51.022;13.736;2023-04-27T02:08:06;99635.88;;;3.38;69.14
76586;BME280;65251;51.022;13.736;2023-04-27T02:08:38;99640.19;;;3.39;68.68
76586;BME280;65251;51.022;13.736;2023-04-27T02:09:09;99634.06;;;3.39;68.82
76586;BME280;65251;51.022;13.736;2023-04-27T02:09:41;99631.75;;;3.36;68.77
76586;BME280;65251;51.022;13.736;2023-04-27T02:10:12;99633.53;;;3.35;68.30
76586;BME280;65251;51.022;13.736;2023-04-27T02:10:43;99638.81;;;3.35;68.45
76586;BME280;65251;51.022;13.736;2023-04-27T02:11:15;99637.69;;;3.38;68.85
76586;BME280;65251;51.022;13.736;2023-04-27T02:11:45;99639.66;;;3.36;68.44
76586;BME280;65251;51.022;13.736;2023-04-27T02:12:16;99639.66;;;3.36;68.17
76586;BME280;65251;51.022;13.736;2023-04-27T02:12:47;99636.19;;;3.35;68.21
76586;BME280;65251;51.022;13.736;2023-04-27T02:13:18;99642.28;;;3.36;67.99
76586;BME280;65251;51.022;13.736;2023-04-27T02:13:50;99640.63;;;3.35;68.18
76586;BME280;65251;51.022;13.736;2023-04-27T02:14:21;99637.84;;;3.36;68.02
76586;BME280;65251;51.022;13.736;2023-04-27T02:14:52;99635.34;;;3.35;67.94
76586;BME280;65251;51.022;13.736;2023-04-27T02:15:23;99638.13;;;3.33;67.69
76586;BME280;65251;51.022;13.736;2023-04-27T02:15:54;99637.16;;;3.34;67.98
76586;BME280;65251;51.022;13.736;2023-04-27T02:16:26;99637.84;;;3.36;67.67
76586;BME280;65251;51.022;13.736;2023-04-27T02:16:57;99640.63;;;3.35;68.08
76586;BME280;65251;51.022;13.736;2023-04-27T02:17:27;99637.31;;;3.33;68.48
76586;BME280;65251;51.022;13.736;2023-04-27T02:18:01;99637.44;;;3.31;68.74
76586;BME280;65251;51.022;13.736;2023-04-27T02:18:32;99638.13;;;3.33;69.02
76586;BME280;65251;51.022;13.736;2023-04-27T02:19:04;99645.19;;;3.33;68.65
76586;BME280;65251;51.022;13.736;2023-04-27T02:19:36;99641.88;;;3.31;68.87
76586;BME280;65251;51.022;13.736;2023-04-27T02:20:07;99637.59;;;3.30;68.70
76586;BME280;65251;51.022;13.736;2023-04-27T02:20:39;99641.34;;;3.27;68.98
76586;BME280;65251;51.022;13.736;2023-04-27T02:21:11;99643.00;;;3.28;68.98
76586;BME280;65251;51.022;13.736;2023-04-27T02:21:41;99638.03;;;3.25;69.38
76586;BME280;65251;51.022;13.736;2023-04-27T02:22:12;99644.13;;;3.26;69.58
76586;BME280;65251;51.022;13.736;2023-04-27T02:22:44;99642.63;;;3.23;69.47
76586;BME280;65251;51.022;13.736;2023-04-27T02:23:15;99642.63;;;3.23;69.21
76586;BME280;65251;51.022;13.736;2023-04-27T02:23:47;99641.78;;;3.23;68.75
76586;BME280;65251;51.022;13.736;2023-04-27T02:24:18;99645.41;;;3.22;68.72
76586;BME280;65251;51.022;13.736;2023-04-27T02:24:49;99638.47;;;3.21;68.99
76586;BME280;65251;51.022;13.736;2023-04-27T02:25:20;99643.09;;;3.19;69.13
76586;BME280;65251;51.022;13.736;2023-04-27T02:25:50;99648.50;;;3.17;69.57
76586;BME280;65251;51.022;13.736;2023-04-27T02:26:22;99638.94;;;3.16;69.64
76586;BME280;65251;51.022;13.736;2023-04-27T02:26:58;99640.59;;;3.17;69.28
76586;BME280;65251;51.022;13.736;2023-04-27T02:27:29;99647.81;;;3.15;69.36
76586;BME280;65251;51.022;13.736;2023-04-27T02:28:01;99643.38;;;3.16;69.84
76586;BME280;65251;51.022;13.736;2023-04-27T02:28:31;99645.19;;;3.15;69.87
76586;BME280;65251;51.022;13.736;2023-04-27T02:29:02;99644.34;;;3.15;69.42
76586;BME280;65251;51.022;13.736;2023-04-27T02:29:34;99641.03;;;3.13;69.59
76586;BME280;65251;51.022;13.736;2023-04-27T02:30:10;99640.22;;;3.12;69.82
76586;BME280;65251;51.022;13.736;2023-04-27T02:30:41;99641.88;;;3.13;70.04
76586;BME280;65251;51.022;13.736;2023-04-27T02:31:12;99640.22;;;3.12;70.12
76586;BME280;65251;51.022;13.736;2023-04-27T02:31:44;99643.13;;;3.09;70.13
76586;BME280;65251;51.022;13.736;2023-04-27T02:32:15;99641.34;;;3.09;70.45
76586;BME280;65251;51.022;13.736;2023-04-27T02:32:46;99645.09;;;3.07;70.03
76586;BME280;65251;51.022;13.736;2023-04-27T02:33:17;99645.38;;;3.04;70.70
76586;BME280;65251;51.022;13.736;2023-04-27T02:33:49;99639.81;;;3.07;70.26
76586;BME280;65251;51.022;13.736;2023-04-27T02:34:19;99644.25;;;3.06;70.09
76586;BME280;65251;51.022;13.736;2023-04-27T02:34:50;99643.72;;;3.03;69.90
76586;BME280;65251;51.022;13.736;2023-04-27T02:35:22;99643.72;;;3.03;70.10
76586;BME280;65251;51.022;13.736;2023-04-27T02:35:52;99646.19;;;3.04;70.06
76586;BME280;65251;51.022;13.736;2023-04-27T02:36:23;99643.56;;;3.04;69.73
76586;BME280;65251;51.022;13.736;2023-04-27T02:36:55;99646.19;;;3.04;69.83
76586;BME280;65251;51.022;13.736;2023-04-27T02:37:26;99642.59;;;3.05;69.71
76586;BME280;65251;51.022;13.736;2023-04-27T02:37:57;99640.78;;;3.06;69.56
76586;BME280;65251;51.022;13.736;2023-04-27T02:38:28;99645.09;;;3.07;69.96
76586;BME280;65251;51.022;13.736;2023-04-27T02:39:02;99644.41;;;3.05;69.68
76586;BME280;65251;51.022;13.736;2023-04-27T02:39:33;99649.38;;;3.08;69.48
76586;BME280;65251;51.022;13.736;2023-04-27T02:40:04;99641.47;;;3.08;69.44
76586;BME280;65251;51.022;13.736;2023-04-27T02:40:37;99645.47;;;3.12;69.65
76586;BME280;65251;51.022;13.736;2023-04-27T02:41:08;99650.88;;;3.10;69.44
76586;BME280;65251;51.022;13.736;2023-04-27T02:41:39;99655.19;;;3.11;69.29
76586;BME280;65251;51.022;13.736;2023-04-27T02:42:10;99649.09;;;3.11;69.34
76586;BME280;65251;51.022;13.736;2023-04-27T02:42:41;99644.66;;;3.11;69.39
76586;BME280;65251;51.022;13.736;2023-04-27T02:43:12;99640.22;;;3.12;69.17
76586;BME280;65251;51.022;13.736;2023-04-27T02:43:43;99643.97;;;3.09;69.34
76586;BME280;65251;51.022;13.736;2023-04-27T02:44:14;99646.44;;;3.11;69.33
76586;BME280;65251;51.022;13.736;2023-04-27T02:44:45;99646.75;;;3.08;69.92
76586;BME280;65251;51.022;13.736;2023-04-27T02:45:16;99643.97;;;3.09;69.63
76586;BME280;65251;51.022;13.736;2023-04-27T02:45:48;99644.50;;;3.13;69.29
76586;BME280;65251;51.022;13.736;2023-04-27T02:46:19;99643.38;;;3.16;69.19